createdAt,value
2023-03-24T00:00:32.882Z,12.80
2023-03-24T00:03:02.778Z,12.79
2023-03-24T00:05:31.962Z,12.79
2023-03-24T00:08:03.051Z,12.79
2023-03-24T00:10:34.602Z,12.78
2023-03-24T00:13:01.743Z,12.78
2023-03-24T00:15:28.976Z,12.78
2023-03-24T00:17:59.161Z,12.77
2023-03-24T00:20:29.426Z,12.77
2023-03-24T00:22:59.490Z,12.76
2023-03-24T00:25:29.549Z,12.77
2023-03-24T00:27:57.560Z,12.77
2023-03-24T00:30:25.362Z,12.76
2023-03-24T00:32:52.430Z,12.77
2023-03-24T00:35:19.740Z,12.75
2023-03-24T00:37:50.042Z,12.78
2023-03-24T00:40:18.593Z,12.76
2023-03-24T00:42:47.768Z,12.75
2023-03-24T00:45:18.185Z,12.75
2023-03-24T00:47:45.639Z,12.75
2023-03-24T00:50:14.570Z,12.75
2023-03-24T00:52:44.296Z,12.76
2023-03-24T00:55:16.047Z,12.74
2023-03-24T00:57:50.753Z,12.74
2023-03-24T01:00:21.075Z,12.75
2023-03-24T01:02:53.755Z,12.75
2023-03-24T01:05:20.807Z,12.76
2023-03-24T01:07:52.260Z,12.75
2023-03-24T01:10:26.311Z,12.77
2023-03-24T01:12:55.487Z,12.77
2023-03-24T01:15:24.861Z,12.78
2023-03-24T01:17:53.483Z,12.79
2023-03-24T01:20:23.123Z,12.79
2023-03-24T01:22:50.980Z,12.77
2023-03-24T01:25:21.539Z,12.79
2023-03-24T01:27:51.325Z,12.81
2023-03-24T01:30:21.905Z,12.82
2023-03-24T01:32:48.773Z,12.83
2023-03-24T01:35:15.765Z,12.85
2023-03-24T01:37:42.727Z,12.87
2023-03-24T01:40:16.444Z,12.87
2023-03-24T01:42:44.647Z,12.90
2023-03-24T01:45:54.524Z,12.91
2023-03-24T01:48:25.524Z,12.91
2023-03-24T01:50:56.268Z,12.91
2023-03-24T01:53:24.087Z,12.91
2023-03-24T01:55:52.000Z,12.91
2023-03-24T01:58:20.804Z,12.91
2023-03-24T02:00:49.558Z,12.92
2023-03-24T02:03:18.888Z,12.92
2023-03-24T02:05:48.088Z,12.93
2023-03-24T02:08:22.294Z,12.93
2023-03-24T02:10:50.907Z,12.95
2023-03-24T02:13:18.351Z,12.95
2023-03-24T02:15:57.230Z,12.95
2023-03-24T02:18:35.634Z,12.95
2023-03-24T02:21:37.253Z,12.98
2023-03-24T02:24:33.842Z,12.97
2023-03-24T02:27:13.701Z,12.96
2023-03-24T02:30:04.459Z,12.95
2023-03-24T02:33:01.898Z,12.98
2023-03-24T02:36:00.070Z,12.97
2023-03-24T02:39:01.750Z,12.98
2023-03-24T02:41:34.660Z,12.99
2023-03-24T02:44:07.095Z,13.01
2023-03-24T02:46:41.701Z,13.01
2023-03-24T02:49:17.431Z,13.03
2023-03-24T02:51:51.601Z,13.03
2023-03-24T02:54:23.386Z,13.03
2023-03-24T02:56:57.360Z,13.02
2023-03-24T02:59:33.276Z,13.05
2023-03-24T03:02:03.891Z,13.06
2023-03-24T03:04:35.351Z,13.06
2023-03-24T03:07:10.105Z,13.05
2023-03-24T03:09:40.801Z,13.08
2023-03-24T03:12:11.368Z,13.07
2023-03-24T03:14:42.019Z,13.06
2023-03-24T03:17:14.621Z,13.05
2023-03-24T03:19:45.280Z,13.03
2023-03-24T03:22:16.489Z,13.05
2023-03-24T03:24:50.779Z,13.04
2023-03-24T03:27:23.021Z,13.02
2023-03-24T03:29:54.501Z,12.98
2023-03-24T03:32:30.950Z,12.92
2023-03-24T03:35:02.263Z,12.86
2023-03-24T03:37:36.716Z,12.83
2023-03-24T03:40:09.611Z,12.79
2023-03-24T03:42:38.237Z,12.76
2023-03-24T03:45:07.517Z,12.72
2023-03-24T03:47:34.661Z,12.69
2023-03-24T03:50:02.776Z,12.63
2023-03-24T03:52:30.719Z,12.61
2023-03-24T03:54:58.735Z,12.57
2023-03-24T03:57:26.752Z,12.54
2023-03-24T03:59:54.985Z,12.50
2023-03-24T04:02:38.264Z,12.43
2023-03-24T04:05:19.477Z,12.40
2023-03-24T04:08:06.193Z,12.35
2023-03-24T04:10:55.177Z,12.29
2023-03-24T04:13:29.190Z,12.23
2023-03-24T04:16:07.103Z,12.16
2023-03-24T04:18:54.547Z,12.09
2023-03-24T04:21:42.342Z,12.03
2023-03-24T04:24:27.506Z,11.99
2023-03-24T04:27:00.886Z,11.93
2023-03-24T04:29:37.783Z,11.88
2023-03-24T04:32:14.629Z,11.86
2023-03-24T04:34:51.121Z,11.83
2023-03-24T04:37:22.233Z,11.77
2023-03-24T04:39:51.099Z,11.73
2023-03-24T04:42:23.585Z,11.70
2023-03-24T04:44:51.819Z,11.67
2023-03-24T04:47:24.684Z,11.65
2023-03-24T04:49:51.972Z,11.61
2023-03-24T04:52:18.701Z,11.60
2023-03-24T04:54:50.716Z,11.57
2023-03-24T04:57:18.714Z,11.55
2023-03-24T04:59:46.371Z,11.54
2023-03-24T05:02:13.199Z,11.54
2023-03-24T05:04:41.477Z,11.52
2023-03-24T05:07:08.493Z,11.51
2023-03-24T05:09:35.255Z,11.49
2023-03-24T05:12:03.993Z,11.46
2023-03-24T05:14:30.760Z,11.41
2023-03-24T05:17:08.036Z,11.38
2023-03-24T05:19:34.810Z,11.35
2023-03-24T05:22:03.029Z,11.32
2023-03-24T05:24:29.833Z,11.29
2023-03-24T05:26:56.571Z,11.26
2023-03-24T05:29:23.307Z,11.22
2023-03-24T05:31:50.314Z,11.18
2023-03-24T05:34:18.072Z,11.17
2023-03-24T05:36:44.805Z,11.15
2023-03-24T05:39:13.143Z,11.12
2023-03-24T05:41:39.919Z,11.10
2023-03-24T05:44:07.327Z,11.08
2023-03-24T05:46:34.288Z,11.04
2023-03-24T05:49:01.393Z,11.02
2023-03-24T05:51:28.117Z,11.00
2023-03-24T05:53:54.880Z,10.98
2023-03-24T05:56:23.583Z,10.96
2023-03-24T05:59:00.160Z,10.94
2023-03-24T06:01:28.967Z,10.95
2023-03-24T06:04:00.440Z,10.95
2023-03-24T06:06:29.564Z,10.94
2023-03-24T06:08:58.613Z,10.94
2023-03-24T06:11:28.153Z,10.94
2023-03-24T06:13:59.284Z,10.93
2023-03-24T06:16:26.172Z,10.94
2023-03-24T06:18:53.198Z,10.94
2023-03-24T06:21:21.921Z,10.95
2023-03-24T06:23:49.166Z,10.94
2023-03-24T06:26:16.792Z,10.96
2023-03-24T06:28:45.445Z,10.97
2023-03-24T06:31:18.528Z,10.99
2023-03-24T06:33:45.828Z,10.98
2023-03-24T06:36:14.078Z,11.00
2023-03-24T06:38:42.182Z,11.02
2023-03-24T06:41:10.640Z,11.01
2023-03-24T06:43:41.824Z,11.03
2023-03-24T06:46:11.023Z,11.05
2023-03-24T06:48:38.691Z,11.05
2023-03-24T06:51:07.270Z,11.08
2023-03-24T06:53:34.044Z,11.09
2023-03-24T06:56:01.146Z,11.11
2023-03-24T06:58:28.494Z,11.11
2023-03-24T07:00:55.507Z,11.13
2023-03-24T07:03:25.185Z,11.15
2023-03-24T07:05:52.318Z,11.16
2023-03-24T07:08:36.679Z,11.18
2023-03-24T07:11:07.022Z,11.20
2023-03-24T07:13:33.851Z,11.22
2023-03-24T07:16:00.925Z,11.24
2023-03-24T07:18:29.173Z,11.27
2023-03-24T07:20:56.234Z,11.30
2023-03-24T07:23:23.182Z,11.31
2023-03-24T07:25:49.941Z,11.35
2023-03-24T07:28:16.928Z,11.38
2023-03-24T07:30:44.030Z,11.40
2023-03-24T07:33:13.515Z,11.45
2023-03-24T07:35:42.162Z,11.48
2023-03-24T07:38:10.038Z,11.50
2023-03-24T07:40:37.402Z,11.53
2023-03-24T07:43:07.642Z,11.57
2023-03-24T07:45:34.501Z,11.62
2023-03-24T07:48:04.024Z,11.64
2023-03-24T07:50:31.858Z,11.67
2023-03-24T07:53:00.431Z,11.69
2023-03-24T07:55:27.505Z,11.69
2023-03-24T07:57:54.753Z,11.69
2023-03-24T08:00:24.861Z,11.70
2023-03-24T08:02:53.670Z,11.72
2023-03-24T08:05:21.967Z,11.72
2023-03-24T08:07:53.559Z,11.74
2023-03-24T08:10:24.166Z,11.76
2023-03-24T08:12:52.562Z,11.77
2023-03-24T08:15:19.922Z,11.82
2023-03-24T08:17:49.156Z,11.84
2023-03-24T08:20:16.260Z,11.88
2023-03-24T08:22:44.436Z,11.93
2023-03-24T08:25:12.915Z,11.98
2023-03-24T08:27:43.604Z,12.02
2023-03-24T08:30:14.285Z,12.06
2023-03-24T08:32:43.834Z,12.10
2023-03-24T08:35:12.386Z,12.14
2023-03-24T08:37:39.072Z,12.19
2023-03-24T08:40:06.661Z,12.22
2023-03-24T08:42:33.451Z,12.24
2023-03-24T08:45:01.740Z,12.27
2023-03-24T08:47:30.871Z,12.29
2023-03-24T08:49:59.321Z,12.32
2023-03-24T08:52:26.641Z,12.30
2023-03-24T08:54:53.481Z,12.33
2023-03-24T08:57:21.708Z,12.35
2023-03-24T08:59:50.887Z,12.36
2023-03-24T09:02:22.260Z,12.41
2023-03-24T09:04:53.815Z,12.46
2023-03-24T09:07:21.232Z,12.47
2023-03-24T09:09:47.938Z,12.51
2023-03-24T09:12:15.989Z,12.51
2023-03-24T09:14:47.647Z,12.54
2023-03-24T09:17:14.130Z,12.55
2023-03-24T09:19:42.285Z,12.60
2023-03-24T09:22:09.079Z,12.62
2023-03-24T09:24:35.785Z,12.67
2023-03-24T09:27:02.618Z,12.71
2023-03-24T09:29:31.480Z,12.76
2023-03-24T09:31:58.457Z,12.78
2023-03-24T09:34:25.285Z,12.80
2023-03-24T09:36:53.445Z,12.83
2023-03-24T09:39:20.519Z,12.87
2023-03-24T09:41:50.618Z,12.88
2023-03-24T09:44:25.757Z,12.92
2023-03-24T09:46:57.170Z,12.93
2023-03-24T09:49:28.126Z,12.95
2023-03-24T09:52:04.442Z,12.98
2023-03-24T09:54:42.123Z,13.00
2023-03-24T09:57:16.668Z,13.03
2023-03-24T09:59:43.795Z,13.07
2023-03-24T10:02:12.589Z,13.11
2023-03-24T10:04:39.553Z,13.14
2023-03-24T10:07:16.264Z,13.14
2023-03-24T10:09:47.575Z,13.13
2023-03-24T10:12:31.294Z,13.14
2023-03-24T10:15:17.697Z,13.14
2023-03-24T10:17:56.798Z,13.13
2023-03-24T10:20:34.143Z,13.12
2023-03-24T10:23:12.373Z,13.12
2023-03-24T10:25:50.151Z,13.15
2023-03-24T10:28:21.246Z,13.19
2023-03-24T10:30:51.170Z,13.20
2023-03-24T10:33:17.907Z,13.21
2023-03-24T10:35:55.763Z,13.25
2023-03-24T10:38:27.375Z,13.32
2023-03-24T10:40:54.595Z,13.39
2023-03-24T10:43:23.487Z,13.45
2023-03-24T10:45:53.019Z,13.48
2023-03-24T10:48:35.042Z,13.46
2023-03-24T10:51:06.127Z,13.46
2023-03-24T10:53:34.332Z,13.44
2023-03-24T10:56:02.238Z,13.39
2023-03-24T10:58:36.060Z,13.38
2023-03-24T11:01:05.262Z,13.33
2023-03-24T11:03:35.350Z,13.30
2023-03-24T11:06:04.735Z,13.27
2023-03-24T11:08:36.934Z,13.26
2023-03-24T11:11:16.294Z,13.32
2023-03-24T11:13:54.769Z,13.39
2023-03-24T11:16:27.509Z,13.47
2023-03-24T11:19:01.693Z,13.53
2023-03-24T11:21:31.481Z,13.60
2023-03-24T11:24:01.417Z,13.68
2023-03-24T11:26:31.792Z,13.70
2023-03-24T11:29:02.049Z,13.68
2023-03-24T11:31:31.015Z,13.65
2023-03-24T11:34:00.677Z,13.61
2023-03-24T11:36:47.609Z,13.57
2023-03-24T11:39:19.072Z,13.55
2023-03-24T11:42:22.039Z,13.58
2023-03-24T11:44:51.384Z,13.59
2023-03-24T11:47:40.225Z,13.64
2023-03-24T11:50:17.829Z,13.65
2023-03-24T11:52:49.136Z,13.69
2023-03-24T11:55:19.488Z,13.75
2023-03-24T11:57:56.124Z,13.77
2023-03-24T12:00:29.500Z,13.80
2023-03-24T12:03:16.701Z,13.83
2023-03-24T12:05:49.672Z,13.83
2023-03-24T12:08:40.260Z,13.82
2023-03-24T12:11:14.759Z,13.78
2023-03-24T12:13:51.852Z,13.68
2023-03-24T12:16:43.726Z,13.53
2023-03-24T12:19:57.165Z,13.42
2023-03-24T12:22:39.492Z,13.30
2023-03-24T12:25:23.021Z,13.15
2023-03-24T12:28:06.260Z,13.01
2023-03-24T12:30:41.633Z,12.96
2023-03-24T12:33:24.980Z,12.90
2023-03-24T12:36:04.318Z,12.86
2023-03-24T12:38:46.163Z,12.80
2023-03-24T12:41:55.093Z,12.71
2023-03-24T12:44:54.332Z,12.65
2023-03-24T12:47:45.351Z,12.60
2023-03-24T12:50:31.818Z,12.56
2023-03-24T12:53:12.125Z,12.58
2023-03-24T12:55:44.849Z,12.64
2023-03-24T12:58:18.529Z,12.69
2023-03-24T13:00:56.219Z,12.75
2023-03-24T13:03:30.450Z,12.83
2023-03-24T13:06:16.297Z,12.92
2023-03-24T13:08:53.113Z,13.02
2023-03-24T13:11:33.196Z,13.11
2023-03-24T13:14:04.893Z,13.22
2023-03-24T13:16:36.569Z,13.33
2023-03-24T13:19:04.895Z,13.40
2023-03-24T13:21:35.370Z,13.46
2023-03-24T13:24:08.655Z,13.54
2023-03-24T13:26:42.762Z,13.59
2023-03-24T13:29:41.914Z,13.62
2023-03-24T13:32:33.610Z,13.65
2023-03-24T13:35:06.620Z,13.64
2023-03-24T13:37:38.178Z,13.60
2023-03-24T13:40:07.427Z,13.57
2023-03-24T13:42:37.337Z,13.46
2023-03-24T13:45:07.095Z,13.35
2023-03-24T13:47:50.631Z,13.31
2023-03-24T13:50:17.702Z,13.22
2023-03-24T13:52:46.809Z,13.15
2023-03-24T13:55:16.221Z,13.08
2023-03-24T13:57:53.170Z,12.99
2023-03-24T14:00:22.845Z,12.83
2023-03-24T14:02:52.758Z,12.69
2023-03-24T14:06:01.018Z,12.61
2023-03-24T14:08:41.607Z,12.53
2023-03-24T14:11:26.143Z,12.45
2023-03-24T14:13:53.240Z,12.37
2023-03-24T14:16:36.119Z,12.33
2023-03-24T14:19:30.489Z,12.30
2023-03-24T14:22:04.068Z,12.29
2023-03-24T14:24:33.080Z,12.29
2023-03-24T14:27:01.024Z,12.28
2023-03-24T14:29:52.509Z,12.29
2023-03-24T14:32:23.218Z,12.29
2023-03-24T14:34:55.281Z,12.26
2023-03-24T14:37:24.064Z,12.19
2023-03-24T14:39:59.343Z,12.18
2023-03-24T14:42:30.783Z,12.16
2023-03-24T14:44:58.408Z,12.16
2023-03-24T14:47:29.860Z,12.17
2023-03-24T14:49:59.169Z,12.20
2023-03-24T14:52:32.079Z,12.24
2023-03-24T14:55:02.239Z,12.27
2023-03-24T14:57:31.408Z,12.31
2023-03-24T15:00:11.942Z,12.35
2023-03-24T15:02:43.359Z,12.39
2023-03-24T15:05:34.305Z,12.47
2023-03-24T15:08:13.732Z,12.51
2023-03-24T15:10:46.919Z,12.56
2023-03-24T15:13:30.972Z,12.59
2023-03-24T15:16:01.076Z,12.63
2023-03-24T15:18:29.478Z,12.64
2023-03-24T15:20:58.314Z,12.66
2023-03-24T15:23:30.312Z,12.68
2023-03-24T15:25:57.773Z,12.70
2023-03-24T15:28:27.384Z,12.70
2023-03-24T15:30:56.321Z,12.71
2023-03-24T15:33:23.541Z,12.72
2023-03-24T15:35:55.416Z,12.71
2023-03-24T15:38:29.559Z,12.77
2023-03-24T15:41:01.054Z,12.79
2023-03-24T15:43:28.662Z,12.79
2023-03-24T15:46:08.849Z,12.83
2023-03-24T15:48:39.239Z,12.81
2023-03-24T15:51:07.892Z,12.77
2023-03-24T15:53:44.572Z,12.76
2023-03-24T15:56:20.562Z,12.75
2023-03-24T15:58:53.068Z,12.73
2023-03-24T16:01:31.684Z,12.75
2023-03-24T16:04:01.827Z,12.76
2023-03-24T16:06:31.048Z,12.75
2023-03-24T16:09:06.744Z,12.75
2023-03-24T16:11:38.059Z,12.74
2023-03-24T16:14:23.588Z,12.76
2023-03-24T16:16:54.036Z,12.75
2023-03-24T16:19:21.196Z,12.74
2023-03-24T16:21:51.178Z,12.75
2023-03-24T16:24:19.743Z,12.73
2023-03-24T16:26:46.720Z,12.73
2023-03-24T16:29:17.098Z,12.73
2023-03-24T16:31:48.996Z,12.74
2023-03-24T16:34:15.931Z,12.74
2023-03-24T16:36:42.763Z,12.73
2023-03-24T16:39:15.897Z,12.70
2023-03-24T16:41:44.629Z,12.69
2023-03-24T16:44:11.386Z,12.65
2023-03-24T16:46:39.212Z,12.63
2023-03-24T16:49:08.393Z,12.61
2023-03-24T16:51:35.572Z,12.60
2023-03-24T16:54:02.526Z,12.57
2023-03-24T16:56:29.479Z,12.56
2023-03-24T16:58:58.102Z,12.56
2023-03-24T17:01:30.141Z,12.55
2023-03-24T17:03:59.252Z,12.53
2023-03-24T17:06:27.456Z,12.50
2023-03-24T17:08:55.013Z,12.47
2023-03-24T17:11:27.276Z,12.45
2023-03-24T17:13:54.511Z,12.43
2023-03-24T17:16:25.828Z,12.43
2023-03-24T17:18:52.686Z,12.42
2023-03-24T17:21:20.163Z,12.43
2023-03-24T17:23:49.427Z,12.41
2023-03-24T17:26:16.540Z,12.39
2023-03-24T17:28:43.932Z,12.39
2023-03-24T17:31:10.848Z,12.36
2023-03-24T17:33:39.058Z,12.35
2023-03-24T17:36:06.884Z,12.33
2023-03-24T17:38:33.754Z,12.31
2023-03-24T17:41:00.928Z,12.30
2023-03-24T17:43:27.987Z,12.30
2023-03-24T17:45:57.035Z,12.30
2023-03-24T17:48:24.275Z,12.31
2023-03-24T17:50:52.558Z,12.31
2023-03-24T17:53:25.816Z,12.30
2023-03-24T17:55:53.306Z,12.30
2023-03-24T17:58:20.715Z,12.30
2023-03-24T18:00:48.833Z,12.29
2023-03-24T18:03:16.650Z,12.29
2023-03-24T18:05:44.916Z,12.28
2023-03-24T18:08:13.123Z,12.27
2023-03-24T18:10:39.987Z,12.24
2023-03-24T18:13:07.468Z,12.23
2023-03-24T18:15:35.264Z,12.21
2023-03-24T18:18:02.730Z,12.21
2023-03-24T18:20:34.963Z,12.22
2023-03-24T18:23:01.777Z,12.19
2023-03-24T18:25:30.010Z,12.16
2023-03-24T18:27:57.098Z,12.14
2023-03-24T18:30:23.943Z,12.12
2023-03-24T18:32:50.808Z,12.10
2023-03-24T18:35:17.685Z,12.09
2023-03-24T18:37:44.936Z,12.06
2023-03-24T18:40:12.439Z,12.05
2023-03-24T18:42:40.621Z,12.05
2023-03-24T18:45:08.571Z,12.04
2023-03-24T18:47:35.515Z,12.03
2023-03-24T18:50:02.357Z,12.02
2023-03-24T18:52:29.200Z,12.00
2023-03-24T18:54:55.991Z,12.00
2023-03-24T18:57:22.827Z,12.00
2023-03-24T18:59:50.976Z,11.98
2023-03-24T19:02:17.922Z,11.99
2023-03-24T19:04:44.759Z,11.96
2023-03-24T19:07:14.692Z,11.96
2023-03-24T19:09:42.342Z,11.97
2023-03-24T19:12:09.971Z,11.93
2023-03-24T19:14:38.415Z,11.90
2023-03-24T19:17:06.912Z,11.87
2023-03-24T19:19:33.878Z,11.86
2023-03-24T19:22:00.958Z,11.84
2023-03-24T19:24:28.703Z,11.80
2023-03-24T19:26:56.435Z,11.80
2023-03-24T19:29:23.593Z,11.78
2023-03-24T19:31:50.348Z,11.77
2023-03-24T19:34:18.545Z,11.74
2023-03-24T19:36:47.653Z,11.72
2023-03-24T19:39:17.501Z,11.70
2023-03-24T19:41:44.906Z,11.68
2023-03-24T19:44:11.754Z,11.65
2023-03-24T19:46:38.736Z,11.63
2023-03-24T19:49:06.989Z,11.62
2023-03-24T19:51:35.420Z,11.61
2023-03-24T19:54:02.129Z,11.58
2023-03-24T19:56:28.866Z,11.57
2023-03-24T19:58:55.709Z,11.54
2023-03-24T20:01:23.859Z,11.52
2023-03-24T20:03:50.974Z,11.51
2023-03-24T20:06:19.670Z,11.49
2023-03-24T20:08:48.072Z,11.47
2023-03-24T20:11:16.289Z,11.47
2023-03-24T20:13:42.992Z,11.45
2023-03-24T20:16:09.795Z,11.43
2023-03-24T20:18:38.957Z,11.42
2023-03-24T20:21:07.049Z,11.39
2023-03-24T20:23:33.796Z,11.37
2023-03-24T20:26:02.085Z,11.38
2023-03-24T20:28:28.930Z,11.36
2023-03-24T20:30:59.212Z,11.33
2023-03-24T20:33:28.664Z,11.32
2023-03-24T20:35:56.496Z,11.31
2023-03-24T20:38:24.050Z,11.29
2023-03-24T20:40:58.159Z,11.26
2023-03-24T20:43:26.726Z,11.23
2023-03-24T20:45:55.888Z,11.21
2023-03-24T20:48:22.736Z,11.20
2023-03-24T20:50:49.695Z,11.18
2023-03-24T20:53:18.139Z,11.16
2023-03-24T20:55:49.067Z,11.13
2023-03-24T20:58:16.178Z,11.11
2023-03-24T21:00:47.864Z,11.09
2023-03-24T21:03:14.474Z,11.07
2023-03-24T21:05:41.425Z,11.05
2023-03-24T21:08:08.174Z,11.05
2023-03-24T21:10:36.100Z,11.03
2023-03-24T21:13:03.245Z,11.03
2023-03-24T21:15:29.983Z,11.02
2023-03-24T21:17:58.813Z,11.02
2023-03-24T21:20:30.798Z,11.01
2023-03-24T21:22:57.576Z,10.98
2023-03-24T21:25:26.537Z,10.99
2023-03-24T21:27:53.942Z,10.99
2023-03-24T21:30:21.494Z,10.98
2023-03-24T21:32:49.979Z,10.96
2023-03-24T21:35:22.576Z,10.95
2023-03-24T21:37:49.683Z,10.94
2023-03-24T21:40:18.728Z,10.93
2023-03-24T21:42:45.732Z,10.92
2023-03-24T21:45:15.640Z,10.89
2023-03-24T21:47:42.713Z,10.88
2023-03-24T21:50:11.854Z,10.87
2023-03-24T21:52:47.138Z,10.86
2023-03-24T21:55:15.267Z,10.86
2023-03-24T21:57:42.914Z,10.86
2023-03-24T22:00:14.688Z,10.84
2023-03-24T22:02:45.597Z,10.83
2023-03-24T22:05:12.799Z,10.82
2023-03-24T22:07:41.353Z,10.80
2023-03-24T22:10:13.409Z,10.80
2023-03-24T22:12:40.538Z,10.80
2023-03-24T22:15:09.624Z,10.81
2023-03-24T22:17:36.960Z,10.81
2023-03-24T22:20:09.295Z,10.81
2023-03-24T22:22:36.932Z,10.79
2023-03-24T22:25:07.744Z,10.79
2023-03-24T22:27:35.111Z,10.78
2023-03-24T22:30:02.274Z,10.77
2023-03-24T22:32:29.070Z,10.75
2023-03-24T22:34:56.114Z,10.74
2023-03-24T22:37:25.829Z,10.74
2023-03-24T22:39:52.544Z,10.72
2023-03-24T22:42:20.924Z,10.71
2023-03-24T22:44:47.931Z,10.70
2023-03-24T22:47:14.873Z,10.69
2023-03-24T22:49:42.024Z,10.68
2023-03-24T22:52:08.920Z,10.66
2023-03-24T22:54:35.733Z,10.67
2023-03-24T22:57:02.439Z,10.66
2023-03-24T22:59:32.486Z,10.66
2023-03-24T23:02:08.689Z,10.68
2023-03-24T23:04:37.140Z,10.67
2023-03-24T23:07:06.184Z,10.66
2023-03-24T23:09:37.419Z,10.64
2023-03-24T23:12:04.582Z,10.64
2023-03-24T23:14:32.785Z,10.64
2023-03-24T23:16:59.982Z,10.64
2023-03-24T23:19:28.186Z,10.64
2023-03-24T23:21:54.896Z,10.63
2023-03-24T23:24:21.567Z,10.62
2023-03-24T23:26:48.361Z,10.60
2023-03-24T23:29:15.323Z,10.60
2023-03-24T23:31:43.747Z,10.61
2023-03-24T23:34:11.553Z,10.60
2023-03-24T23:36:45.039Z,10.61
2023-03-24T23:39:12.356Z,10.59
2023-03-24T23:41:39.159Z,10.59
2023-03-24T23:44:05.971Z,10.57
2023-03-24T23:46:33.654Z,10.56
2023-03-24T23:49:01.967Z,10.56
2023-03-24T23:51:28.764Z,10.55
2023-03-24T23:53:55.447Z,10.56
2023-03-24T23:56:22.729Z,10.56
2023-03-24T23:58:49.507Z,10.54
